createdAt,value
2019-04-20T00:00:56.507Z,9.35
2019-04-20T00:03:30.934Z,9.03
2019-04-20T00:05:55.419Z,9.90
2019-04-20T00:08:27.952Z,8.48
2019-04-20T00:11:02.374Z,9.10
2019-04-20T00:13:37.855Z,8.75
2019-04-20T00:15:55.777Z,9.73
2019-04-20T00:18:25.935Z,9.10
2019-04-20T00:21:00.373Z,8.23
2019-04-20T00:23:40.439Z,8.90
2019-04-20T00:26:32.157Z,8.83
2019-04-20T00:29:08.943Z,8.80
2019-04-20T00:31:38.073Z,8.40
2019-04-20T00:33:59.437Z,8.55
2019-04-20T00:36:20.123Z,8.70
2019-04-20T00:38:54.717Z,7.60
2019-04-20T00:41:21.231Z,7.78
2019-04-20T00:43:49.676Z,8.20
2019-04-20T00:46:26.387Z,8.13
2019-04-20T00:48:55.825Z,9.20
2019-04-20T00:51:35.379Z,8.00
2019-04-20T00:53:52.324Z,8.60
2019-04-20T00:56:20.248Z,8.55
2019-04-20T00:59:04.248Z,8.78
2019-04-20T01:01:43.981Z,8.48
2019-04-20T01:04:13.175Z,8.05
2019-04-20T01:06:50.304Z,7.87
2019-04-20T01:09:20.217Z,8.80
2019-04-20T01:11:50.114Z,8.50
2019-04-20T01:14:30.282Z,8.28
2019-04-20T01:16:56.900Z,7.50
2019-04-20T01:19:20.601Z,7.70
2019-04-20T01:21:57.905Z,7.72
2019-04-20T01:24:27.332Z,7.30
2019-04-20T01:26:54.869Z,8.03
2019-04-20T01:29:29.199Z,8.45
2019-04-20T01:32:05.612Z,8.05
2019-04-20T01:34:37.987Z,8.28
2019-04-20T01:37:04.383Z,7.17
2019-04-20T01:39:29.852Z,8.13
2019-04-20T01:41:52.036Z,6.80
2019-04-20T01:44:28.169Z,8.40
2019-04-20T01:46:56.434Z,7.15
2019-04-20T01:49:25.390Z,7.37
2019-04-20T01:52:04.876Z,7.65
2019-04-20T01:54:42.135Z,6.87
2019-04-20T01:57:08.511Z,7.58
2019-04-20T01:59:45.992Z,7.65
2019-04-20T02:02:14.671Z,6.15
2019-04-20T02:04:45.981Z,7.08
2019-04-20T02:07:12.021Z,6.55
2019-04-20T02:09:48.579Z,7.60
2019-04-20T02:12:18.265Z,7.08
2019-04-20T02:14:48.238Z,6.45
2019-04-20T02:17:22.705Z,6.35
2019-04-20T02:20:05.527Z,7.10
2019-04-20T02:22:30.373Z,6.90
2019-04-20T02:24:42.681Z,7.30
2019-04-20T02:27:11.141Z,6.95
2019-04-20T02:30:11.125Z,7.42
2019-04-20T02:32:40.775Z,7.28
2019-04-20T02:35:18.309Z,6.87
2019-04-20T02:38:02.997Z,7.10
2019-04-20T02:40:15.443Z,6.72
2019-04-20T02:42:50.840Z,6.65
2019-04-20T02:45:27.723Z,6.97
2019-04-20T02:48:13.484Z,6.87
2019-04-20T02:55:24.081Z,6.03
2019-04-20T02:57:58.406Z,6.78
2019-04-20T03:00:12.248Z,7.15
2019-04-20T03:02:32.856Z,6.83
2019-04-20T03:05:01.634Z,5.80
2019-04-20T03:07:31.516Z,6.67
2019-04-20T03:10:06.545Z,6.80
2019-04-20T03:12:38.610Z,6.17
2019-04-20T03:15:01.618Z,6.28
2019-04-20T03:17:41.350Z,6.15
2019-04-20T03:20:04.731Z,6.67
2019-04-20T03:23:09.239Z,6.47
2019-04-20T03:25:13.525Z,7.10
2019-04-20T03:27:36.445Z,6.65
2019-04-20T03:30:40.670Z,7.20
2019-04-20T03:33:02.405Z,6.33
2019-04-20T03:35:20.951Z,6.80
2019-04-20T03:37:48.629Z,6.92
2019-04-20T03:40:08.366Z,7.05
2019-04-20T03:42:26.904Z,7.00
2019-04-20T03:45:00.491Z,6.60
2019-04-20T03:47:36.523Z,7.08
2019-04-20T03:50:18.607Z,6.83
2019-04-20T03:53:04.435Z,5.97
2019-04-20T03:55:44.462Z,6.28
2019-04-20T03:58:24.136Z,6.58
2019-04-20T04:01:04.071Z,6.45
2019-04-20T04:03:47.226Z,6.70
2019-04-20T04:06:05.222Z,6.42
2019-04-20T04:08:32.629Z,6.55
2019-04-20T04:11:13.562Z,6.58
2019-04-20T04:13:24.987Z,6.62
2019-04-20T04:15:59.406Z,7.33
2019-04-20T04:18:29.719Z,7.37
2019-04-20T04:21:03.103Z,6.75
2019-04-20T04:23:40.893Z,7.85
2019-04-20T04:26:12.315Z,6.72
2019-04-20T04:28:42.367Z,7.65
2019-04-20T04:31:14.682Z,7.20
2019-04-20T04:36:15.364Z,7.35
2019-04-20T04:38:51.742Z,9.25
2019-04-20T04:43:44.424Z,8.18
2019-04-20T04:45:57.858Z,8.03
2019-04-20T04:48:32.091Z,7.28
2019-04-20T04:51:03.861Z,7.58
2019-04-20T04:53:42.917Z,8.50
2019-04-20T04:56:04.864Z,8.18
2019-04-20T04:58:29.684Z,8.45
2019-04-20T05:01:05.681Z,7.90
2019-04-20T05:03:44.975Z,7.70
2019-04-20T05:06:25.280Z,8.95
2019-04-20T05:08:41.691Z,7.92
2019-04-20T05:11:04.868Z,7.97
2019-04-20T05:13:41.997Z,7.72
2019-04-20T05:16:21.455Z,8.43
2019-04-20T05:19:00.554Z,8.73
2019-04-20T05:21:25.466Z,8.40
2019-04-20T05:23:53.509Z,8.08
2019-04-20T05:26:39.847Z,8.90
2019-04-20T05:28:56.925Z,7.97
2019-04-20T05:31:18.567Z,8.33
2019-04-20T05:34:09.553Z,8.38
2019-04-20T05:36:37.236Z,7.92
2019-04-20T05:39:17.252Z,8.05
2019-04-20T05:41:37.130Z,7.67
2019-04-20T05:44:05.122Z,8.18
2019-04-20T05:46:42.234Z,8.53
2019-04-20T05:49:20.665Z,7.28
2019-04-20T05:51:42.432Z,7.78
2019-04-20T05:54:13.500Z,6.62
2019-04-20T05:56:56.443Z,6.62
2019-04-20T05:59:11.610Z,7.67
2019-04-20T06:01:45.249Z,7.97
2019-04-20T06:04:07.597Z,7.05
2019-04-20T06:06:45.013Z,8.23
2019-04-20T06:09:17.773Z,8.15
2019-04-20T06:11:56.221Z,7.42
2019-04-20T06:14:19.361Z,6.67
2019-04-20T06:17:11.376Z,6.78
2019-04-20T06:19:51.927Z,6.90
2019-04-20T06:22:31.188Z,7.42
2019-04-20T06:25:23.647Z,7.15
2019-04-20T06:27:43.517Z,6.12
2019-04-20T06:30:08.573Z,6.50
2019-04-20T06:33:28.541Z,7.33
2019-04-20T06:36:07.848Z,6.97
2019-04-20T06:38:35.266Z,6.55
2019-04-20T06:41:03.074Z,6.87
2019-04-20T06:43:30.432Z,6.58
2019-04-20T06:46:02.020Z,6.45
2019-04-20T06:48:35.303Z,6.58
2019-04-20T06:50:44.262Z,6.60
2019-04-20T06:53:41.126Z,6.65
2019-04-20T06:56:10.938Z,6.53
2019-04-20T06:58:46.476Z,6.47
2019-04-20T07:01:08.105Z,6.50
2019-04-20T07:03:56.785Z,6.05
2019-04-20T07:06:26.713Z,5.78
2019-04-20T07:08:51.112Z,6.58
2019-04-20T07:11:12.593Z,6.40
2019-04-20T07:13:28.557Z,6.95
2019-04-20T07:16:05.721Z,6.05
2019-04-20T07:18:43.734Z,5.65
2019-04-20T07:21:15.251Z,5.40
2019-04-20T07:23:51.718Z,5.60
2019-04-20T07:26:16.926Z,5.83
2019-04-20T07:28:50.956Z,5.30
2019-04-20T07:31:13.774Z,5.58
2019-04-20T07:33:46.348Z,5.15
2019-04-20T07:36:20.073Z,5.58
2019-04-20T07:38:52.455Z,5.05
2019-04-20T07:41:21.577Z,5.50
2019-04-20T07:43:53.624Z,5.12
2019-04-20T07:46:35.293Z,5.03
2019-04-20T07:48:49.117Z,5.08
2019-04-20T07:51:06.809Z,4.53
2019-04-20T07:53:42.197Z,5.25
2019-04-20T07:56:17.275Z,4.47
2019-04-20T07:58:38.099Z,4.17
2019-04-20T08:01:38.738Z,4.55
2019-04-20T08:04:07.828Z,4.30
2019-04-20T08:06:29.852Z,4.62
2019-04-20T08:09:08.753Z,4.20
2019-04-20T08:11:47.560Z,4.10
2019-04-20T08:14:22.461Z,3.75
2019-04-20T08:16:47.183Z,4.37
2019-04-20T08:19:10.113Z,4.05
2019-04-20T08:21:42.272Z,4.33
2019-04-20T08:24:13.234Z,4.17
2019-04-20T08:26:28.994Z,4.37
2019-04-20T08:29:01.618Z,4.45
2019-04-20T08:31:40.708Z,4.80
2019-04-20T08:34:31.381Z,4.83
2019-04-20T08:36:59.904Z,4.67
2019-04-20T08:39:45.095Z,4.92
2019-04-20T08:42:00.254Z,5.45
2019-04-20T08:44:46.933Z,5.30
2019-04-20T08:47:14.642Z,5.42
2019-04-20T08:49:35.463Z,5.70
2019-04-20T08:52:18.852Z,5.72
2019-04-20T08:54:27.694Z,6.03
2019-04-20T08:56:46.999Z,5.80
2019-04-20T08:59:11.549Z,5.55
2019-04-20T09:01:40.909Z,6.20
2019-04-20T09:04:15.307Z,6.05
2019-04-20T09:06:53.372Z,5.97
2019-04-20T09:09:39.240Z,6.00
2019-04-20T09:12:03.244Z,5.72
2019-04-20T09:14:20.885Z,5.78
2019-04-20T09:16:58.206Z,6.28
2019-04-20T09:19:29.875Z,6.17
2019-04-20T09:22:10.252Z,6.22
2019-04-20T09:24:47.477Z,5.95
2019-04-20T09:27:08.917Z,6.62
2019-04-20T09:29:39.795Z,5.67
2019-04-20T09:32:16.794Z,5.92
2019-04-20T09:34:50.547Z,6.90
2019-04-20T09:37:24.704Z,6.80
2019-04-20T09:40:04.844Z,6.95
2019-04-20T09:42:13.974Z,6.22
2019-04-20T09:44:47.744Z,6.42
2019-04-20T09:47:14.187Z,6.53
2019-04-20T09:49:54.969Z,7.33
2019-04-20T09:52:27.904Z,6.75
2019-04-20T09:54:58.987Z,6.70
2019-04-20T09:57:33.394Z,7.35
2019-04-20T10:00:04.334Z,7.17
2019-04-20T10:02:22.171Z,7.00
2019-04-20T10:04:44.898Z,6.55
2019-04-20T10:07:17.993Z,6.60
2019-04-20T10:09:45.599Z,6.50
2019-04-20T10:12:15.584Z,6.12
2019-04-20T10:14:44.819Z,6.30
2019-04-20T10:17:13.767Z,6.42
2019-04-20T10:19:44.506Z,6.35
2019-04-20T10:22:13.052Z,6.22
2019-04-20T10:24:42.361Z,5.87
2019-04-20T10:27:12.507Z,6.50
2019-04-20T10:29:41.718Z,6.28
2019-04-20T10:32:14.116Z,6.12
2019-04-20T10:34:40.943Z,6.33
2019-04-20T10:37:15.518Z,6.00
2019-04-20T10:39:44.671Z,5.47
2019-04-20T10:42:14.186Z,6.60
2019-04-20T10:44:43.047Z,5.10
2019-04-20T10:47:11.771Z,5.72
2019-04-20T10:49:40.836Z,6.15
2019-04-20T10:52:09.805Z,5.80
2019-04-20T10:54:38.569Z,6.75
2019-04-20T10:57:07.845Z,7.00
2019-04-20T10:59:37.260Z,7.12
2019-04-20T11:02:06.211Z,6.75
2019-04-20T11:04:34.794Z,6.80
2019-04-20T11:07:04.755Z,6.65
2019-04-20T11:09:34.478Z,6.58
2019-04-20T11:12:04.214Z,6.62
2019-04-20T11:14:36.677Z,6.72
2019-04-20T11:17:04.349Z,7.30
2019-04-20T11:19:33.590Z,7.33
2019-04-20T11:22:02.514Z,6.30
2019-04-20T11:24:32.286Z,9.35
2019-04-20T11:27:02.305Z,10.05
2019-04-20T11:29:31.926Z,9.88
2019-04-20T11:32:01.108Z,10.05
2019-04-20T11:34:33.986Z,9.30
2019-04-20T11:37:01.396Z,9.83
2019-04-20T11:39:30.349Z,8.50
2019-04-20T11:41:59.539Z,8.03
2019-04-20T11:44:30.317Z,10.30
2019-04-20T11:46:58.710Z,10.48
2019-04-20T11:49:27.805Z,9.30
2019-04-20T11:51:57.337Z,7.10
2019-04-20T11:54:26.345Z,7.60
2019-04-20T11:56:55.498Z,7.37
2019-04-20T11:59:25.283Z,8.08
2019-04-20T12:02:02.528Z,7.85
2019-04-20T12:04:41.999Z,7.20
2019-04-20T12:09:31.657Z,9.28
2019-04-20T12:12:12.780Z,15.83
2019-04-20T12:14:30.957Z,9.00
2019-04-20T12:16:59.750Z,9.13
2019-04-20T12:19:29.025Z,7.90
2019-04-20T12:21:57.984Z,11.15
2019-04-20T12:24:26.806Z,6.95
2019-04-20T12:26:56.526Z,7.40
2019-04-20T12:29:25.829Z,10.60
2019-04-20T12:31:59.205Z,9.03
2019-04-20T12:34:24.822Z,9.10
2019-04-20T12:36:53.500Z,9.20
2019-04-20T12:39:22.477Z,7.70
2019-04-20T12:41:56.745Z,7.83
2019-04-20T12:44:21.859Z,8.40
2019-04-20T12:46:51.897Z,11.18
2019-04-20T12:49:20.813Z,13.45
2019-04-20T12:51:55.578Z,7.87
2019-04-20T12:54:20.733Z,8.75
2019-04-20T12:56:50.724Z,8.93
2019-04-20T12:59:19.604Z,7.37
2019-04-20T13:01:49.190Z,8.13
2019-04-20T13:04:18.501Z,7.42
2019-04-20T13:06:48.712Z,7.40
2019-04-20T13:09:18.735Z,7.00
2019-04-20T13:11:57.009Z,8.33
2019-04-20T13:14:46.422Z,7.58
2019-04-20T13:17:16.548Z,7.65
2019-04-20T13:19:45.271Z,7.30
2019-04-20T13:22:14.814Z,8.40
2019-04-20T13:24:43.449Z,8.48
2019-04-20T13:27:13.173Z,8.98
2019-04-20T13:29:43.082Z,9.40
2019-04-20T13:32:12.060Z,9.83
2019-04-20T13:34:40.385Z,10.03
2019-04-20T13:37:10.353Z,9.80
2019-04-20T13:39:40.509Z,10.78
2019-04-20T13:42:15.847Z,13.15
2019-04-20T13:44:40.992Z,15.25
2019-04-20T13:47:09.778Z,10.98
2019-04-20T13:49:38.867Z,8.40
2019-04-20T13:52:08.756Z,9.13
2019-04-20T13:54:37.983Z,8.93
2019-04-20T13:57:08.488Z,9.15
2019-04-20T13:59:41.941Z,9.13
2019-04-20T14:02:12.948Z,9.35
2019-04-20T14:04:44.483Z,8.98
2019-04-20T14:07:15.368Z,9.10
2019-04-20T14:09:43.878Z,8.68
2019-04-20T14:12:22.500Z,8.08
2019-04-20T14:14:43.430Z,8.30
2019-04-20T14:17:13.024Z,7.95
2019-04-20T14:19:42.896Z,8.48
2019-04-20T14:22:13.121Z,8.85
2019-04-20T14:24:42.683Z,8.70
2019-04-20T14:27:12.855Z,10.58
2019-04-20T14:29:43.118Z,9.13
2019-04-20T14:32:12.018Z,8.33
2019-04-20T14:34:40.900Z,8.55
2019-04-20T14:37:10.914Z,8.98
2019-04-20T14:39:40.558Z,8.20
2019-04-20T14:42:09.989Z,10.28
2019-04-20T14:44:39.644Z,9.15
2019-04-20T14:47:09.705Z,8.38
2019-04-20T14:49:38.801Z,8.63
2019-04-20T14:52:08.224Z,8.83
2019-04-20T14:54:37.299Z,9.58
2019-04-20T14:57:07.592Z,9.28
2019-04-20T14:59:38.019Z,8.90
2019-04-20T15:02:08.613Z,10.60
2019-04-20T15:04:37.279Z,9.45
2019-04-20T15:07:06.700Z,9.68
2019-04-20T15:09:38.439Z,9.78
2019-04-20T15:12:06.747Z,9.53
2019-04-20T15:14:36.758Z,9.80
2019-04-20T15:17:06.772Z,10.15
2019-04-20T15:19:37.278Z,10.63
2019-04-20T15:22:07.662Z,10.35
2019-04-20T15:24:37.591Z,10.05
2019-04-20T15:27:06.723Z,9.65
2019-04-20T15:29:36.089Z,10.43
2019-04-20T15:32:06.042Z,9.60
2019-04-20T15:34:35.026Z,9.73
2019-04-20T15:37:04.400Z,10.55
2019-04-20T15:39:34.878Z,16.90
2019-04-20T15:42:03.750Z,12.90
2019-04-20T15:44:33.420Z,11.25
2019-04-20T15:47:03.534Z,11.65
2019-04-20T15:49:33.694Z,9.35
2019-04-20T15:52:03.800Z,9.30
2019-04-20T15:54:33.884Z,10.53
2019-04-20T15:57:12.390Z,11.40
2019-04-20T15:59:33.092Z,10.95
2019-04-20T16:02:09.410Z,11.12
2019-04-20T16:04:48.740Z,11.35
2019-04-20T16:07:19.225Z,15.75
2019-04-20T16:09:48.498Z,13.28
2019-04-20T16:12:18.483Z,14.07
2019-04-20T16:14:47.380Z,12.18
2019-04-20T16:17:17.282Z,11.35
2019-04-20T16:19:55.356Z,10.28
2019-04-20T16:22:19.789Z,10.38
2019-04-20T16:24:51.573Z,10.13
2019-04-20T16:27:25.473Z,10.45
2019-04-20T16:29:55.485Z,11.10
2019-04-20T16:32:24.711Z,12.78
2019-04-20T16:34:53.464Z,13.90
2019-04-20T16:37:22.415Z,17.85
2019-04-20T16:39:52.378Z,16.77
2019-04-20T16:42:22.280Z,30.65
2019-04-20T16:44:51.388Z,12.60
2019-04-20T16:47:20.167Z,42.03
2019-04-20T16:49:48.860Z,16.05
2019-04-20T16:52:18.948Z,10.50
2019-04-20T16:54:47.996Z,11.45
2019-04-20T16:57:17.256Z,27.20
2019-04-20T16:59:50.538Z,30.48
2019-04-20T17:02:17.819Z,14.98
2019-04-20T17:04:47.212Z,14.53
2019-04-20T17:07:18.731Z,27.32
2019-04-20T17:09:49.684Z,153.23
2019-04-20T17:12:19.608Z,14.65
2019-04-20T17:14:49.495Z,19.37
2019-04-20T17:17:18.210Z,15.40
2019-04-20T17:19:46.906Z,16.65
2019-04-20T17:22:15.643Z,18.98
2019-04-20T17:24:45.355Z,18.17
2019-04-20T17:27:31.143Z,20.55
2019-04-20T17:30:03.091Z,21.35
2019-04-20T17:32:33.748Z,16.62
2019-04-20T17:35:19.419Z,18.42
2019-04-20T17:37:39.272Z,17.90
2019-04-20T17:40:27.430Z,21.17
2019-04-20T17:42:47.316Z,22.80
2019-04-20T17:45:10.422Z,21.37
2019-04-20T17:50:24.061Z,22.55
2019-04-20T17:52:57.556Z,22.07
2019-04-20T17:55:22.142Z,22.90
2019-04-20T17:57:39.862Z,26.23
2019-04-20T18:00:15.721Z,29.92
2019-04-20T18:03:05.988Z,32.10
2019-04-20T18:05:55.128Z,31.87
2019-04-20T18:08:25.405Z,28.92
2019-04-20T18:10:41.481Z,29.98
2019-04-20T18:13:09.109Z,26.07
2019-04-20T18:15:46.488Z,24.95
2019-04-20T18:18:24.508Z,27.02
2019-04-20T18:20:45.164Z,46.60
2019-04-20T18:23:13.834Z,50.12
2019-04-20T18:26:07.829Z,43.85
2019-04-20T18:28:24.859Z,41.88
2019-04-20T18:31:03.834Z,35.88
2019-04-20T18:33:35.234Z,33.85
2019-04-20T18:36:03.047Z,33.83
2019-04-20T18:38:39.276Z,33.67
2019-04-20T18:41:07.316Z,35.30
2019-04-20T18:43:33.025Z,38.38
2019-04-20T18:46:20.652Z,45.12
2019-04-20T18:48:54.605Z,46.15
2019-04-20T18:51:03.909Z,46.50
2019-04-20T18:53:40.750Z,47.23
2019-04-20T18:56:04.717Z,44.80
2019-04-20T18:58:33.554Z,49.98
2019-04-20T19:01:03.155Z,49.42
2019-04-20T19:03:35.739Z,52.33
2019-04-20T19:06:02.333Z,67.90
2019-04-20T19:08:39.115Z,66.77
2019-04-20T19:11:07.592Z,62.25
2019-04-20T19:13:51.253Z,66.12
2019-04-20T19:16:30.414Z,69.60
2019-04-20T19:19:13.473Z,71.53
2019-04-20T19:21:33.386Z,82.50
2019-04-20T19:24:10.193Z,90.83
2019-04-20T19:26:32.377Z,96.70
2019-04-20T19:29:13.385Z,101.02
2019-04-20T19:31:47.456Z,101.62
2019-04-20T19:34:18.817Z,104.67
2019-04-20T19:36:38.927Z,106.22
2019-04-20T19:39:19.359Z,101.95
2019-04-20T19:41:43.416Z,101.53
2019-04-20T19:44:16.135Z,94.20
2019-04-20T19:46:53.700Z,96.87
2019-04-20T19:49:19.590Z,90.05
2019-04-20T19:52:02.852Z,85.67
2019-04-20T19:54:31.261Z,89.37
2019-04-20T19:56:49.803Z,86.85
2019-04-20T19:59:16.215Z,85.07
2019-04-20T20:01:37.870Z,85.42
2019-04-20T20:04:09.842Z,88.85
2019-04-20T20:06:45.368Z,92.67
2019-04-20T20:09:10.871Z,95.77
2019-04-20T20:11:42.540Z,95.30
2019-04-20T20:14:12.659Z,99.67
2019-04-20T20:16:58.812Z,102.17
2019-04-20T20:19:27.423Z,101.02
2019-04-20T20:21:55.499Z,100.95
2019-04-20T20:24:11.243Z,100.72
2019-04-20T20:26:44.688Z,105.27
2019-04-20T20:29:19.361Z,110.15
2019-04-20T20:31:55.342Z,120.85
2019-04-20T20:34:22.079Z,120.82
2019-04-20T20:36:47.272Z,123.00
2019-04-20T20:39:20.022Z,120.47
2019-04-20T20:41:53.135Z,110.22
2019-04-20T20:44:26.191Z,119.17
2019-04-20T20:46:55.352Z,114.28
2019-04-20T20:49:32.788Z,115.67
2019-04-20T20:52:09.813Z,120.30
2019-04-20T20:54:28.372Z,122.92
2019-04-20T20:56:51.377Z,119.67
2019-04-20T20:59:30.196Z,124.35
2019-04-20T21:01:54.876Z,121.07
2019-04-20T21:04:17.264Z,119.93
2019-04-20T21:06:46.557Z,113.90
2019-04-20T21:09:16.543Z,129.05
2019-04-20T21:11:46.362Z,121.40
2019-04-20T21:14:19.935Z,124.80
2019-04-20T21:16:53.119Z,123.13
2019-04-20T21:19:28.655Z,126.42
2019-04-20T21:21:58.396Z,130.97
2019-04-20T21:24:19.781Z,130.78
2019-04-20T21:26:49.576Z,126.35
2019-04-20T21:29:21.336Z,128.20
2019-04-20T21:31:55.554Z,127.02
2019-04-20T21:34:20.573Z,126.07
2019-04-20T21:36:50.526Z,121.95
2019-04-20T21:39:30.131Z,111.97
2019-04-20T21:41:56.895Z,118.13
2019-04-20T21:44:25.234Z,117.45
2019-04-20T21:46:54.428Z,117.17
2019-04-20T21:49:36.188Z,129.85
2019-04-20T21:51:58.605Z,133.82
2019-04-20T21:54:22.286Z,123.72
2019-04-20T21:56:56.214Z,112.55
2019-04-20T21:59:30.611Z,113.90
2019-04-20T22:02:01.295Z,113.37
2019-04-20T22:04:23.115Z,104.75
2019-04-20T22:06:52.162Z,107.10
2019-04-20T22:09:25.142Z,98.07
2019-04-20T22:11:51.922Z,98.42
2019-04-20T22:14:24.315Z,96.85
2019-04-20T22:16:53.817Z,94.17
2019-04-20T22:19:30.683Z,96.87
2019-04-20T22:22:02.573Z,103.40
2019-04-20T22:24:39.866Z,94.60
2019-04-20T22:27:03.080Z,99.58
2019-04-20T22:29:23.880Z,94.60
2019-04-20T22:32:00.459Z,87.22
2019-04-20T22:34:26.083Z,83.85
2019-04-20T22:36:53.840Z,84.42
2019-04-20T22:39:36.902Z,82.47
2019-04-20T22:42:06.608Z,81.40
2019-04-20T22:44:32.457Z,79.12
2019-04-20T22:47:04.425Z,82.33
2019-04-20T22:49:47.384Z,79.90
2019-04-20T22:52:18.044Z,81.97
2019-04-20T22:54:44.676Z,80.55
2019-04-20T22:57:09.412Z,80.35
2019-04-20T22:59:42.164Z,83.58
2019-04-20T23:02:04.624Z,92.08
2019-04-20T23:04:33.058Z,95.85
2019-04-20T23:07:03.137Z,97.72
2019-04-20T23:09:32.837Z,97.82
2019-04-20T23:12:07.994Z,92.17
2019-04-20T23:14:32.403Z,87.08
2019-04-20T23:17:02.118Z,93.85
2019-04-20T23:19:38.261Z,93.05
2019-04-20T23:22:04.761Z,90.22
2019-04-20T23:24:31.506Z,87.10
2019-04-20T23:27:04.448Z,93.05
2019-04-20T23:29:34.543Z,91.08
2019-04-20T23:32:05.162Z,86.15
2019-04-20T23:34:33.865Z,87.62
2019-04-20T23:37:01.130Z,90.15
2019-04-20T23:39:35.543Z,90.07
2019-04-20T23:42:03.954Z,94.35
2019-04-20T23:44:35.704Z,94.60
2019-04-20T23:47:11.123Z,100.80
2019-04-20T23:49:54.140Z,99.87
2019-04-20T23:52:32.319Z,101.53
2019-04-20T23:54:47.238Z,100.00
2019-04-20T23:57:08.093Z,103.45
2019-04-20T23:59:39.796Z,99.50
